sensor_id;sensor_type;location;lat;lon;timestamp;P1;durP1;ratioP1;P2;durP2;ratioP2
24644;SDS011;12780;45.502;9.146;2023-02-28T00:00:03;9.30;;;6.05;;
24644;SDS011;12780;45.502;9.146;2023-02-28T00:02:34;10.13;;;6.28;;
24644;SDS011;12780;45.502;9.146;2023-02-28T00:05:00;12.07;;;6.22;;
24644;SDS011;12780;45.502;9.146;2023-02-28T00:07:28;9.05;;;6.30;;
24644;SDS011;12780;45.502;9.146;2023-02-28T00:09:55;14.55;;;7.00;;
24644;SDS011;12780;45.502;9.146;2023-02-28T00:12:21;11.80;;;6.20;;
24644;SDS011;12780;45.502;9.146;2023-02-28T00:14:47;12.90;;;6.68;;
24644;SDS011;12780;45.502;9.146;2023-02-28T00:17:13;14.13;;;6.85;;
24644;SDS011;12780;45.502;9.146;2023-02-28T00:19:39;13.93;;;6.65;;
24644;SDS011;12780;45.502;9.146;2023-02-28T00:22:05;12.23;;;6.40;;
24644;SDS011;12780;45.502;9.146;2023-02-28T00:24:31;10.68;;;5.70;;
24644;SDS011;12780;45.502;9.146;2023-02-28T00:26:57;13.02;;;6.47;;
24644;SDS011;12780;45.502;9.146;2023-02-28T00:29:23;12.07;;;5.82;;
24644;SDS011;12780;45.502;9.146;2023-02-28T00:31:49;12.48;;;5.80;;
24644;SDS011;12780;45.502;9.146;2023-02-28T00:34:15;12.68;;;6.20;;
24644;SDS011;12780;45.502;9.146;2023-02-28T00:36:41;9.65;;;5.50;;
24644;SDS011;12780;45.502;9.146;2023-02-28T00:39:10;12.30;;;5.38;;
24644;SDS011;12780;45.502;9.146;2023-02-28T00:41:36;11.75;;;5.60;;
24644;SDS011;12780;45.502;9.146;2023-02-28T00:44:02;10.73;;;4.97;;
24644;SDS011;12780;45.502;9.146;2023-02-28T00:46:28;14.00;;;5.60;;
24644;SDS011;12780;45.502;9.146;2023-02-28T00:48:54;9.23;;;5.30;;
24644;SDS011;12780;45.502;9.146;2023-02-28T00:51:20;9.07;;;4.90;;
24644;SDS011;12780;45.502;9.146;2023-02-28T00:53:46;16.35;;;5.00;;
24644;SDS011;12780;45.502;9.146;2023-02-28T00:56:12;10.85;;;5.10;;
24644;SDS011;12780;45.502;9.146;2023-02-28T00:58:38;9.88;;;5.38;;
24644;SDS011;12780;45.502;9.146;2023-02-28T01:01:05;10.80;;;4.93;;
24644;SDS011;12780;45.502;9.146;2023-02-28T01:03:31;11.25;;;5.55;;
24644;SDS011;12780;45.502;9.146;2023-02-28T01:05:57;10.35;;;5.13;;
24644;SDS011;12780;45.502;9.146;2023-02-28T01:08:23;17.35;;;5.95;;
24644;SDS011;12780;45.502;9.146;2023-02-28T01:10:49;12.73;;;5.55;;
24644;SDS011;12780;45.502;9.146;2023-02-28T01:13:15;9.35;;;5.35;;
24644;SDS011;12780;45.502;9.146;2023-02-28T01:15:43;8.93;;;5.53;;
24644;SDS011;12780;45.502;9.146;2023-02-28T01:18:09;10.90;;;5.50;;
24644;SDS011;12780;45.502;9.146;2023-02-28T01:20:38;13.57;;;5.40;;
24644;SDS011;12780;45.502;9.146;2023-02-28T01:23:05;9.93;;;5.50;;
24644;SDS011;12780;45.502;9.146;2023-02-28T01:25:31;13.45;;;5.82;;
24644;SDS011;12780;45.502;9.146;2023-02-28T01:27:59;13.57;;;5.88;;
24644;SDS011;12780;45.502;9.146;2023-02-28T01:30:25;10.15;;;6.45;;
24644;SDS011;12780;45.502;9.146;2023-02-28T01:32:51;12.13;;;6.40;;
24644;SDS011;12780;45.502;9.146;2023-02-28T01:35:18;11.73;;;6.53;;
24644;SDS011;12780;45.502;9.146;2023-02-28T01:37:44;10.80;;;6.30;;
24644;SDS011;12780;45.502;9.146;2023-02-28T01:40:10;12.63;;;6.15;;
24644;SDS011;12780;45.502;9.146;2023-02-28T01:42:37;12.25;;;6.05;;
24644;SDS011;12780;45.502;9.146;2023-02-28T01:47:30;11.48;;;5.70;;
24644;SDS011;12780;45.502;9.146;2023-02-28T01:49:57;10.63;;;5.70;;
24644;SDS011;12780;45.502;9.146;2023-02-28T01:52:24;12.88;;;6.65;;
24644;SDS011;12780;45.502;9.146;2023-02-28T01:54:51;12.10;;;6.53;;
24644;SDS011;12780;45.502;9.146;2023-02-28T01:57:18;13.80;;;6.65;;
24644;SDS011;12780;45.502;9.146;2023-02-28T01:59:46;13.27;;;6.22;;
24644;SDS011;12780;45.502;9.146;2023-02-28T02:02:17;11.95;;;6.43;;
24644;SDS011;12780;45.502;9.146;2023-02-28T02:04:51;12.40;;;6.18;;
24644;SDS011;12780;45.502;9.146;2023-02-28T02:07:19;15.48;;;6.05;;
24644;SDS011;12780;45.502;9.146;2023-02-28T02:09:46;12.25;;;6.13;;
24644;SDS011;12780;45.502;9.146;2023-02-28T02:17:36;12.23;;;5.80;;
24644;SDS011;12780;45.502;9.146;2023-02-28T02:20:12;13.27;;;5.65;;
24644;SDS011;12780;45.502;9.146;2023-02-28T02:30:27;18.02;;;6.32;;
24644;SDS011;12780;45.502;9.146;2023-02-28T02:35:24;11.68;;;6.20;;
24644;SDS011;12780;45.502;9.146;2023-02-28T02:37:56;10.43;;;6.28;;
24644;SDS011;12780;45.502;9.146;2023-02-28T02:48:15;10.57;;;5.45;;
24644;SDS011;12780;45.502;9.146;2023-02-28T02:50:43;10.27;;;5.80;;
24644;SDS011;12780;45.502;9.146;2023-02-28T02:53:11;11.25;;;5.72;;
24644;SDS011;12780;45.502;9.146;2023-02-28T02:55:40;14.02;;;6.45;;
24644;SDS011;12780;45.502;9.146;2023-02-28T02:58:14;13.05;;;5.88;;
24644;SDS011;12780;45.502;9.146;2023-02-28T03:00:42;12.73;;;6.43;;
24644;SDS011;12780;45.502;9.146;2023-02-28T03:03:09;13.35;;;5.85;;
24644;SDS011;12780;45.502;9.146;2023-02-28T03:05:41;16.50;;;6.15;;
24644;SDS011;12780;45.502;9.146;2023-02-28T03:08:08;11.27;;;6.07;;
24644;SDS011;12780;45.502;9.146;2023-02-28T03:15:36;11.82;;;5.68;;
24644;SDS011;12780;45.502;9.146;2023-02-28T03:18:12;11.18;;;5.78;;
24644;SDS011;12780;45.502;9.146;2023-02-28T03:20:49;14.30;;;6.15;;
24644;SDS011;12780;45.502;9.146;2023-02-28T03:23:21;12.55;;;5.70;;
24644;SDS011;12780;45.502;9.146;2023-02-28T03:30:46;10.13;;;5.70;;
24644;SDS011;12780;45.502;9.146;2023-02-28T03:33:21;12.60;;;6.57;;
24644;SDS011;12780;45.502;9.146;2023-02-28T03:35:52;14.35;;;6.32;;
24644;SDS011;12780;45.502;9.146;2023-02-28T03:38:31;12.55;;;6.53;;
24644;SDS011;12780;45.502;9.146;2023-02-28T03:41:13;10.95;;;6.40;;
24644;SDS011;12780;45.502;9.146;2023-02-28T03:43:41;9.45;;;5.57;;
24644;SDS011;12780;45.502;9.146;2023-02-28T03:46:10;9.73;;;5.40;;
24644;SDS011;12780;45.502;9.146;2023-02-28T03:49:24;11.52;;;5.82;;
24644;SDS011;12780;45.502;9.146;2023-02-28T03:51:25;10.98;;;6.13;;
24644;SDS011;12780;45.502;9.146;2023-02-28T03:53:53;9.27;;;5.53;;
24644;SDS011;12780;45.502;9.146;2023-02-28T03:56:27;14.18;;;6.13;;
24644;SDS011;12780;45.502;9.146;2023-02-28T03:58:57;10.23;;;5.77;;
24644;SDS011;12780;45.502;9.146;2023-02-28T04:01:32;11.32;;;5.75;;
24644;SDS011;12780;45.502;9.146;2023-02-28T04:03:59;12.05;;;5.57;;
24644;SDS011;12780;45.502;9.146;2023-02-28T04:06:25;10.77;;;5.30;;
24644;SDS011;12780;45.502;9.146;2023-02-28T04:08:52;12.88;;;6.10;;
24644;SDS011;12780;45.502;9.146;2023-02-28T04:11:23;10.20;;;5.90;;
24644;SDS011;12780;45.502;9.146;2023-02-28T04:13:49;9.70;;;5.70;;
24644;SDS011;12780;45.502;9.146;2023-02-28T04:16:15;12.02;;;5.75;;
24644;SDS011;12780;45.502;9.146;2023-02-28T04:18:41;9.95;;;6.05;;
24644;SDS011;12780;45.502;9.146;2023-02-28T04:21:08;10.45;;;5.70;;
24644;SDS011;12780;45.502;9.146;2023-02-28T04:23:34;12.63;;;6.40;;
24644;SDS011;12780;45.502;9.146;2023-02-28T04:26:00;9.07;;;5.95;;
24644;SDS011;12780;45.502;9.146;2023-02-28T04:28:26;11.05;;;6.07;;
24644;SDS011;12780;45.502;9.146;2023-02-28T04:30:59;10.18;;;6.30;;
24644;SDS011;12780;45.502;9.146;2023-02-28T04:33:25;12.40;;;6.00;;
24644;SDS011;12780;45.502;9.146;2023-02-28T04:35:58;12.52;;;5.85;;
24644;SDS011;12780;45.502;9.146;2023-02-28T04:38:24;10.93;;;5.40;;
24644;SDS011;12780;45.502;9.146;2023-02-28T04:40:51;9.02;;;5.75;;
24644;SDS011;12780;45.502;9.146;2023-02-28T04:43:17;11.05;;;5.90;;
24644;SDS011;12780;45.502;9.146;2023-02-28T04:45:43;11.35;;;5.75;;
24644;SDS011;12780;45.502;9.146;2023-02-28T04:48:09;11.50;;;6.15;;
24644;SDS011;12780;45.502;9.146;2023-02-28T04:50:35;9.77;;;5.80;;
24644;SDS011;12780;45.502;9.146;2023-02-28T04:53:01;10.98;;;5.80;;
24644;SDS011;12780;45.502;9.146;2023-02-28T04:55:27;12.18;;;6.07;;
24644;SDS011;12780;45.502;9.146;2023-02-28T04:57:53;11.55;;;5.78;;
24644;SDS011;12780;45.502;9.146;2023-02-28T05:00:19;9.30;;;5.95;;
24644;SDS011;12780;45.502;9.146;2023-02-28T05:02:45;12.85;;;5.80;;
24644;SDS011;12780;45.502;9.146;2023-02-28T05:05:11;13.35;;;6.10;;
24644;SDS011;12780;45.502;9.146;2023-02-28T05:07:43;11.80;;;6.45;;
24644;SDS011;12780;45.502;9.146;2023-02-28T05:10:09;11.32;;;6.10;;
24644;SDS011;12780;45.502;9.146;2023-02-28T05:12:35;11.23;;;6.15;;
24644;SDS011;12780;45.502;9.146;2023-02-28T05:15:01;9.88;;;6.03;;
24644;SDS011;12780;45.502;9.146;2023-02-28T05:17:28;12.73;;;6.32;;
24644;SDS011;12780;45.502;9.146;2023-02-28T05:19:54;11.98;;;5.75;;
24644;SDS011;12780;45.502;9.146;2023-02-28T05:22:19;10.00;;;5.97;;
24644;SDS011;12780;45.502;9.146;2023-02-28T05:24:45;15.60;;;6.15;;
24644;SDS011;12780;45.502;9.146;2023-02-28T05:27:11;10.98;;;5.80;;
24644;SDS011;12780;45.502;9.146;2023-02-28T05:29:37;9.05;;;5.70;;
24644;SDS011;12780;45.502;9.146;2023-02-28T05:32:10;11.57;;;6.10;;
24644;SDS011;12780;45.502;9.146;2023-02-28T05:34:37;12.48;;;6.60;;
24644;SDS011;12780;45.502;9.146;2023-02-28T05:37:03;13.00;;;5.93;;
24644;SDS011;12780;45.502;9.146;2023-02-28T05:39:29;11.05;;;6.80;;
24644;SDS011;12780;45.502;9.146;2023-02-28T05:41:55;11.70;;;6.45;;
24644;SDS011;12780;45.502;9.146;2023-02-28T05:44:21;13.73;;;6.40;;
24644;SDS011;12780;45.502;9.146;2023-02-28T05:46:47;12.38;;;6.13;;
24644;SDS011;12780;45.502;9.146;2023-02-28T05:49:13;11.63;;;6.63;;
24644;SDS011;12780;45.502;9.146;2023-02-28T05:51:39;14.15;;;6.78;;
24644;SDS011;12780;45.502;9.146;2023-02-28T05:54:05;13.30;;;6.85;;
24644;SDS011;12780;45.502;9.146;2023-02-28T05:56:32;15.30;;;6.75;;
24644;SDS011;12780;45.502;9.146;2023-02-28T05:59:02;15.77;;;7.63;;
24644;SDS011;12780;45.502;9.146;2023-02-28T06:03:58;11.88;;;6.55;;
24644;SDS011;12780;45.502;9.146;2023-02-28T06:06:24;13.60;;;6.80;;
24644;SDS011;12780;45.502;9.146;2023-02-28T06:08:50;14.25;;;6.90;;
24644;SDS011;12780;45.502;9.146;2023-02-28T06:11:16;15.10;;;7.30;;
24644;SDS011;12780;45.502;9.146;2023-02-28T06:13:44;19.88;;;7.18;;
24644;SDS011;12780;45.502;9.146;2023-02-28T06:16:10;13.90;;;7.38;;
24644;SDS011;12780;45.502;9.146;2023-02-28T06:18:37;14.55;;;7.60;;
24644;SDS011;12780;45.502;9.146;2023-02-28T06:21:03;13.07;;;7.57;;
24644;SDS011;12780;45.502;9.146;2023-02-28T06:23:29;17.73;;;7.85;;
24644;SDS011;12780;45.502;9.146;2023-02-28T06:25:55;12.85;;;7.28;;
24644;SDS011;12780;45.502;9.146;2023-02-28T06:28:24;12.90;;;7.90;;
24644;SDS011;12780;45.502;9.146;2023-02-28T06:30:51;12.77;;;7.72;;
24644;SDS011;12780;45.502;9.146;2023-02-28T06:33:17;14.15;;;7.60;;
24644;SDS011;12780;45.502;9.146;2023-02-28T06:35:44;18.63;;;7.90;;
24644;SDS011;12780;45.502;9.146;2023-02-28T06:38:10;14.77;;;7.97;;
24644;SDS011;12780;45.502;9.146;2023-02-28T06:40:36;21.63;;;8.63;;
24644;SDS011;12780;45.502;9.146;2023-02-28T06:43:02;15.55;;;8.05;;
24644;SDS011;12780;45.502;9.146;2023-02-28T06:45:28;17.13;;;8.20;;
24644;SDS011;12780;45.502;9.146;2023-02-28T06:47:54;14.27;;;8.70;;
24644;SDS011;12780;45.502;9.146;2023-02-28T06:50:20;14.95;;;8.48;;
24644;SDS011;12780;45.502;9.146;2023-02-28T06:52:46;14.35;;;8.30;;
24644;SDS011;12780;45.502;9.146;2023-02-28T06:55:12;16.40;;;8.77;;
24644;SDS011;12780;45.502;9.146;2023-02-28T06:57:38;16.80;;;8.57;;
24644;SDS011;12780;45.502;9.146;2023-02-28T07:00:06;21.65;;;10.80;;
24644;SDS011;12780;45.502;9.146;2023-02-28T07:02:33;26.50;;;10.90;;
24644;SDS011;12780;45.502;9.146;2023-02-28T07:04:59;25.88;;;11.48;;
24644;SDS011;12780;45.502;9.146;2023-02-28T07:07:25;27.08;;;12.50;;
24644;SDS011;12780;45.502;9.146;2023-02-28T07:09:51;27.75;;;11.75;;
24644;SDS011;12780;45.502;9.146;2023-02-28T07:12:17;29.38;;;12.18;;
24644;SDS011;12780;45.502;9.146;2023-02-28T07:14:43;21.75;;;11.13;;
24644;SDS011;12780;45.502;9.146;2023-02-28T07:17:09;19.92;;;9.63;;
24644;SDS011;12780;45.502;9.146;2023-02-28T07:19:37;19.95;;;9.25;;
24644;SDS011;12780;45.502;9.146;2023-02-28T07:22:03;18.98;;;9.02;;
24644;SDS011;12780;45.502;9.146;2023-02-28T07:24:29;17.52;;;9.40;;
24644;SDS011;12780;45.502;9.146;2023-02-28T07:26:56;20.30;;;9.80;;
24644;SDS011;12780;45.502;9.146;2023-02-28T07:29:22;23.65;;;9.98;;
24644;SDS011;12780;45.502;9.146;2023-02-28T07:31:48;16.88;;;9.75;;
24644;SDS011;12780;45.502;9.146;2023-02-28T07:34:17;21.55;;;9.68;;
24644;SDS011;12780;45.502;9.146;2023-02-28T07:36:43;19.40;;;10.23;;
24644;SDS011;12780;45.502;9.146;2023-02-28T07:39:10;23.48;;;10.30;;
24644;SDS011;12780;45.502;9.146;2023-02-28T07:41:36;19.45;;;9.98;;
24644;SDS011;12780;45.502;9.146;2023-02-28T07:44:08;21.10;;;10.38;;
24644;SDS011;12780;45.502;9.146;2023-02-28T07:46:34;19.58;;;10.63;;
24644;SDS011;12780;45.502;9.146;2023-02-28T07:49:01;19.77;;;10.85;;
24644;SDS011;12780;45.502;9.146;2023-02-28T07:51:28;23.10;;;11.07;;
24644;SDS011;12780;45.502;9.146;2023-02-28T07:53:54;19.20;;;9.95;;
24644;SDS011;12780;45.502;9.146;2023-02-28T07:56:20;20.73;;;11.07;;
24644;SDS011;12780;45.502;9.146;2023-02-28T07:58:46;24.00;;;10.82;;
24644;SDS011;12780;45.502;9.146;2023-02-28T08:01:12;22.05;;;10.43;;
24644;SDS011;12780;45.502;9.146;2023-02-28T08:03:39;18.50;;;9.95;;
24644;SDS011;12780;45.502;9.146;2023-02-28T08:06:06;24.05;;;10.85;;
24644;SDS011;12780;45.502;9.146;2023-02-28T08:08:32;21.48;;;10.63;;
24644;SDS011;12780;45.502;9.146;2023-02-28T08:10:59;20.48;;;10.43;;
24644;SDS011;12780;45.502;9.146;2023-02-28T08:13:26;34.67;;;10.48;;
24644;SDS011;12780;45.502;9.146;2023-02-28T08:15:52;27.20;;;10.60;;
24644;SDS011;12780;45.502;9.146;2023-02-28T08:18:19;23.02;;;11.05;;
24644;SDS011;12780;45.502;9.146;2023-02-28T08:20:45;30.23;;;10.73;;
24644;SDS011;12780;45.502;9.146;2023-02-28T08:23:11;28.70;;;10.63;;
24644;SDS011;12780;45.502;9.146;2023-02-28T08:25:37;20.10;;;10.48;;
24644;SDS011;12780;45.502;9.146;2023-02-28T08:28:03;21.75;;;10.18;;
24644;SDS011;12780;45.502;9.146;2023-02-28T08:30:29;27.77;;;10.57;;
24644;SDS011;12780;45.502;9.146;2023-02-28T08:32:55;22.23;;;10.93;;
24644;SDS011;12780;45.502;9.146;2023-02-28T08:35:22;21.35;;;9.88;;
24644;SDS011;12780;45.502;9.146;2023-02-28T08:37:48;23.10;;;9.85;;
24644;SDS011;12780;45.502;9.146;2023-02-28T08:40:14;22.60;;;10.30;;
24644;SDS011;12780;45.502;9.146;2023-02-28T08:42:47;22.70;;;10.57;;
24644;SDS011;12780;45.502;9.146;2023-02-28T08:45:13;23.67;;;11.30;;
24644;SDS011;12780;45.502;9.146;2023-02-28T08:47:39;20.42;;;10.85;;
24644;SDS011;12780;45.502;9.146;2023-02-28T08:50:05;18.58;;;10.65;;
24644;SDS011;12780;45.502;9.146;2023-02-28T08:52:32;25.52;;;10.68;;
24644;SDS011;12780;45.502;9.146;2023-02-28T08:54:58;19.33;;;10.82;;
24644;SDS011;12780;45.502;9.146;2023-02-28T08:57:24;21.55;;;11.35;;
24644;SDS011;12780;45.502;9.146;2023-02-28T08:59:53;24.85;;;11.15;;
24644;SDS011;12780;45.502;9.146;2023-02-28T09:02:19;23.00;;;11.63;;
24644;SDS011;12780;45.502;9.146;2023-02-28T09:04:45;23.73;;;11.00;;
24644;SDS011;12780;45.502;9.146;2023-02-28T09:07:11;17.00;;;10.27;;
24644;SDS011;12780;45.502;9.146;2023-02-28T09:09:37;21.40;;;11.18;;
24644;SDS011;12780;45.502;9.146;2023-02-28T09:12:18;26.48;;;10.50;;
24644;SDS011;12780;45.502;9.146;2023-02-28T09:14:44;30.70;;;10.25;;
24644;SDS011;12780;45.502;9.146;2023-02-28T09:17:10;20.30;;;10.23;;
24644;SDS011;12780;45.502;9.146;2023-02-28T09:19:36;23.45;;;10.63;;
24644;SDS011;12780;45.502;9.146;2023-02-28T09:22:02;17.45;;;9.90;;
24644;SDS011;12780;45.502;9.146;2023-02-28T09:24:28;18.88;;;10.23;;
24644;SDS011;12780;45.502;9.146;2023-02-28T09:26:56;25.33;;;10.82;;
24644;SDS011;12780;45.502;9.146;2023-02-28T09:29:22;19.13;;;10.70;;
24644;SDS011;12780;45.502;9.146;2023-02-28T09:31:48;18.17;;;9.88;;
24644;SDS011;12780;45.502;9.146;2023-02-28T09:34:15;19.48;;;9.63;;
24644;SDS011;12780;45.502;9.146;2023-02-28T09:36:42;21.45;;;10.25;;
24644;SDS011;12780;45.502;9.146;2023-02-28T09:39:08;15.15;;;9.25;;
24644;SDS011;12780;45.502;9.146;2023-02-28T09:41:38;19.33;;;9.05;;
24644;SDS011;12780;45.502;9.146;2023-02-28T09:44:15;26.02;;;10.45;;
24644;SDS011;12780;45.502;9.146;2023-02-28T09:46:44;16.42;;;9.60;;
24644;SDS011;12780;45.502;9.146;2023-02-28T09:49:14;23.65;;;9.90;;
24644;SDS011;12780;45.502;9.146;2023-02-28T09:54:20;18.88;;;10.05;;
24644;SDS011;12780;45.502;9.146;2023-02-28T09:57:32;16.75;;;9.15;;
24644;SDS011;12780;45.502;9.146;2023-02-28T10:10:21;18.15;;;10.15;;
24644;SDS011;12780;45.502;9.146;2023-02-28T10:12:49;19.98;;;10.30;;
24644;SDS011;12780;45.502;9.146;2023-02-28T10:15:17;18.58;;;9.35;;
24644;SDS011;12780;45.502;9.146;2023-02-28T10:17:45;18.02;;;10.02;;
24644;SDS011;12780;45.502;9.146;2023-02-28T10:20:19;20.27;;;10.02;;
24644;SDS011;12780;45.502;9.146;2023-02-28T10:22:52;21.85;;;10.07;;
24644;SDS011;12780;45.502;9.146;2023-02-28T10:25:20;17.90;;;9.45;;
24644;SDS011;12780;45.502;9.146;2023-02-28T10:27:47;17.60;;;10.30;;
24644;SDS011;12780;45.502;9.146;2023-02-28T10:30:13;27.73;;;9.65;;
24644;SDS011;12780;45.502;9.146;2023-02-28T10:32:39;23.92;;;10.60;;
24644;SDS011;12780;45.502;9.146;2023-02-28T10:37:37;20.45;;;9.95;;
24644;SDS011;12780;45.502;9.146;2023-02-28T10:40:04;17.00;;;9.90;;
24644;SDS011;12780;45.502;9.146;2023-02-28T10:42:30;20.60;;;10.75;;
24644;SDS011;12780;45.502;9.146;2023-02-28T10:47:37;17.40;;;10.88;;
24644;SDS011;12780;45.502;9.146;2023-02-28T10:50:09;20.55;;;10.35;;
24644;SDS011;12780;45.502;9.146;2023-02-28T10:52:52;20.60;;;11.35;;
24644;SDS011;12780;45.502;9.146;2023-02-28T10:55:23;24.50;;;10.82;;
24644;SDS011;12780;45.502;9.146;2023-02-28T10:57:50;22.25;;;10.43;;
24644;SDS011;12780;45.502;9.146;2023-02-28T11:00:20;16.98;;;10.57;;
24644;SDS011;12780;45.502;9.146;2023-02-28T11:02:47;18.90;;;10.65;;
24644;SDS011;12780;45.502;9.146;2023-02-28T11:05:35;19.95;;;11.52;;
24644;SDS011;12780;45.502;9.146;2023-02-28T11:08:06;17.73;;;10.75;;
24644;SDS011;12780;45.502;9.146;2023-02-28T11:10:36;20.33;;;10.50;;
24644;SDS011;12780;45.502;9.146;2023-02-28T11:13:02;17.60;;;10.98;;
24644;SDS011;12780;45.502;9.146;2023-02-28T11:15:30;20.85;;;11.20;;
24644;SDS011;12780;45.502;9.146;2023-02-28T11:18:01;18.42;;;10.93;;
24644;SDS011;12780;45.502;9.146;2023-02-28T11:20:30;20.85;;;12.18;;
24644;SDS011;12780;45.502;9.146;2023-02-28T11:22:57;27.05;;;11.82;;
24644;SDS011;12780;45.502;9.146;2023-02-28T11:26:09;21.20;;;11.55;;
24644;SDS011;12780;45.502;9.146;2023-02-28T11:28:24;25.55;;;11.48;;
24644;SDS011;12780;45.502;9.146;2023-02-28T11:31:01;22.17;;;12.70;;
24644;SDS011;12780;45.502;9.146;2023-02-28T11:33:28;21.50;;;11.68;;
24644;SDS011;12780;45.502;9.146;2023-02-28T11:35:57;18.45;;;11.43;;
24644;SDS011;12780;45.502;9.146;2023-02-28T11:38:24;18.40;;;11.32;;
24644;SDS011;12780;45.502;9.146;2023-02-28T11:43:39;26.77;;;11.60;;
24644;SDS011;12780;45.502;9.146;2023-02-28T11:51:32;25.50;;;12.27;;
24644;SDS011;12780;45.502;9.146;2023-02-28T11:58:59;20.38;;;13.65;;
24644;SDS011;12780;45.502;9.146;2023-02-28T12:01:31;25.73;;;13.15;;
24644;SDS011;12780;45.502;9.146;2023-02-28T12:04:03;26.67;;;14.03;;
24644;SDS011;12780;45.502;9.146;2023-02-28T12:06:42;23.27;;;13.40;;
24644;SDS011;12780;45.502;9.146;2023-02-28T12:09:17;22.98;;;13.25;;
24644;SDS011;12780;45.502;9.146;2023-02-28T12:11:53;25.38;;;14.02;;
24644;SDS011;12780;45.502;9.146;2023-02-28T12:19:16;25.58;;;13.25;;
24644;SDS011;12780;45.502;9.146;2023-02-28T12:21:48;20.75;;;14.07;;
24644;SDS011;12780;45.502;9.146;2023-02-28T12:26:46;21.00;;;14.45;;
24644;SDS011;12780;45.502;9.146;2023-02-28T12:29:19;23.45;;;13.68;;
24644;SDS011;12780;45.502;9.146;2023-02-28T12:31:56;20.63;;;13.43;;
24644;SDS011;12780;45.502;9.146;2023-02-28T12:34:32;22.10;;;14.07;;
24644;SDS011;12780;45.502;9.146;2023-02-28T12:37:00;23.98;;;13.95;;
24644;SDS011;12780;45.502;9.146;2023-02-28T12:39:46;23.35;;;14.70;;
24644;SDS011;12780;45.502;9.146;2023-02-28T12:42:26;29.48;;;14.35;;
24644;SDS011;12780;45.502;9.146;2023-02-28T12:44:54;29.13;;;14.30;;
24644;SDS011;12780;45.502;9.146;2023-02-28T12:47:22;25.17;;;14.50;;
24644;SDS011;12780;45.502;9.146;2023-02-28T12:49:50;20.50;;;13.52;;
24644;SDS011;12780;45.502;9.146;2023-02-28T12:52:21;23.60;;;14.48;;
24644;SDS011;12780;45.502;9.146;2023-02-28T12:58:04;26.35;;;15.65;;
24644;SDS011;12780;45.502;9.146;2023-02-28T13:00:34;36.90;;;15.50;;
24644;SDS011;12780;45.502;9.146;2023-02-28T13:10:56;22.30;;;13.02;;
24644;SDS011;12780;45.502;9.146;2023-02-28T13:13:26;23.52;;;14.32;;
24644;SDS011;12780;45.502;9.146;2023-02-28T13:15:57;31.63;;;17.27;;
24644;SDS011;12780;45.502;9.146;2023-02-28T13:18:32;21.58;;;14.32;;
24644;SDS011;12780;45.502;9.146;2023-02-28T13:20:58;23.40;;;14.65;;
24644;SDS011;12780;45.502;9.146;2023-02-28T13:23:56;25.90;;;13.90;;
24644;SDS011;12780;45.502;9.146;2023-02-28T13:29:03;25.90;;;14.18;;
24644;SDS011;12780;45.502;9.146;2023-02-28T13:31:30;24.90;;;13.93;;
24644;SDS011;12780;45.502;9.146;2023-02-28T13:34:05;27.88;;;13.98;;
24644;SDS011;12780;45.502;9.146;2023-02-28T13:36:31;25.83;;;14.13;;
24644;SDS011;12780;45.502;9.146;2023-02-28T13:39:01;24.88;;;14.45;;
24644;SDS011;12780;45.502;9.146;2023-02-28T13:46:29;28.15;;;14.50;;
24644;SDS011;12780;45.502;9.146;2023-02-28T13:48:55;23.55;;;15.00;;
24644;SDS011;12780;45.502;9.146;2023-02-28T13:54:19;21.77;;;14.15;;
24644;SDS011;12780;45.502;9.146;2023-02-28T13:57:01;19.77;;;13.15;;
24644;SDS011;12780;45.502;9.146;2023-02-28T13:59:32;28.30;;;14.55;;
24644;SDS011;12780;45.502;9.146;2023-02-28T14:04:48;24.80;;;14.27;;
24644;SDS011;12780;45.502;9.146;2023-02-28T14:07:23;26.08;;;14.48;;
24644;SDS011;12780;45.502;9.146;2023-02-28T14:09:58;26.65;;;14.20;;
24644;SDS011;12780;45.502;9.146;2023-02-28T14:17:55;24.73;;;15.20;;
24644;SDS011;12780;45.502;9.146;2023-02-28T14:20:25;28.58;;;15.13;;
24644;SDS011;12780;45.502;9.146;2023-02-28T14:25:35;22.27;;;14.02;;
24644;SDS011;12780;45.502;9.146;2023-02-28T14:28:19;23.95;;;14.63;;
24644;SDS011;12780;45.502;9.146;2023-02-28T14:30:51;24.70;;;15.35;;
24644;SDS011;12780;45.502;9.146;2023-02-28T14:38:32;22.85;;;14.32;;
24644;SDS011;12780;45.502;9.146;2023-02-28T14:41:00;27.50;;;14.73;;
24644;SDS011;12780;45.502;9.146;2023-02-28T14:43:28;24.83;;;14.75;;
24644;SDS011;12780;45.502;9.146;2023-02-28T14:45:55;23.25;;;13.80;;
24644;SDS011;12780;45.502;9.146;2023-02-28T14:48:22;26.10;;;14.25;;
24644;SDS011;12780;45.502;9.146;2023-02-28T14:51:08;33.25;;;14.52;;
24644;SDS011;12780;45.502;9.146;2023-02-28T14:53:36;23.02;;;14.75;;
24644;SDS011;12780;45.502;9.146;2023-02-28T14:56:02;26.08;;;14.88;;
24644;SDS011;12780;45.502;9.146;2023-02-28T14:58:29;37.53;;;19.38;;
24644;SDS011;12780;45.502;9.146;2023-02-28T15:00:57;32.83;;;17.67;;
24644;SDS011;12780;45.502;9.146;2023-02-28T15:03:31;28.77;;;16.27;;
24644;SDS011;12780;45.502;9.146;2023-02-28T15:05:58;23.20;;;14.65;;
24644;SDS011;12780;45.502;9.146;2023-02-28T15:08:24;25.60;;;14.65;;
24644;SDS011;12780;45.502;9.146;2023-02-28T15:10:55;22.65;;;14.18;;
24644;SDS011;12780;45.502;9.146;2023-02-28T15:13:22;23.98;;;14.27;;
24644;SDS011;12780;45.502;9.146;2023-02-28T15:18:27;27.00;;;14.45;;
24644;SDS011;12780;45.502;9.146;2023-02-28T15:20:55;24.00;;;14.52;;
24644;SDS011;12780;45.502;9.146;2023-02-28T15:23:21;28.65;;;13.85;;
24644;SDS011;12780;45.502;9.146;2023-02-28T15:25:48;25.67;;;14.38;;
24644;SDS011;12780;45.502;9.146;2023-02-28T15:28:18;24.63;;;14.18;;
24644;SDS011;12780;45.502;9.146;2023-02-28T15:30:52;24.88;;;14.43;;
24644;SDS011;12780;45.502;9.146;2023-02-28T15:35:44;30.10;;;14.23;;
24644;SDS011;12780;45.502;9.146;2023-02-28T15:38:18;29.05;;;13.35;;
24644;SDS011;12780;45.502;9.146;2023-02-28T15:40:51;20.58;;;13.25;;
24644;SDS011;12780;45.502;9.146;2023-02-28T15:45:47;20.98;;;13.00;;
24644;SDS011;12780;45.502;9.146;2023-02-28T15:48:16;24.35;;;13.95;;
24644;SDS011;12780;45.502;9.146;2023-02-28T15:50:43;28.73;;;14.30;;
24644;SDS011;12780;45.502;9.146;2023-02-28T15:53:13;35.08;;;14.30;;
24644;SDS011;12780;45.502;9.146;2023-02-28T15:55:39;23.55;;;13.25;;
24644;SDS011;12780;45.502;9.146;2023-02-28T15:58:08;22.20;;;13.30;;
24644;SDS011;12780;45.502;9.146;2023-02-28T16:00:37;23.35;;;13.43;;
24644;SDS011;12780;45.502;9.146;2023-02-28T16:03:22;67.95;;;32.35;;
24644;SDS011;12780;45.502;9.146;2023-02-28T16:06:07;22.35;;;13.77;;
24644;SDS011;12780;45.502;9.146;2023-02-28T16:08:33;22.35;;;13.77;;
24644;SDS011;12780;45.502;9.146;2023-02-28T16:10:59;22.63;;;14.18;;
24644;SDS011;12780;45.502;9.146;2023-02-28T16:13:25;24.45;;;14.15;;
24644;SDS011;12780;45.502;9.146;2023-02-28T16:15:51;24.77;;;14.85;;
24644;SDS011;12780;45.502;9.146;2023-02-28T16:18:17;21.27;;;13.45;;
24644;SDS011;12780;45.502;9.146;2023-02-28T16:20:43;25.80;;;14.55;;
24644;SDS011;12780;45.502;9.146;2023-02-28T16:23:09;24.35;;;14.10;;
24644;SDS011;12780;45.502;9.146;2023-02-28T16:25:40;23.73;;;13.90;;
24644;SDS011;12780;45.502;9.146;2023-02-28T16:28:12;23.23;;;13.90;;
24644;SDS011;12780;45.502;9.146;2023-02-28T16:30:41;22.63;;;13.48;;
24644;SDS011;12780;45.502;9.146;2023-02-28T16:33:07;26.98;;;14.20;;
24644;SDS011;12780;45.502;9.146;2023-02-28T16:35:33;35.40;;;14.90;;
24644;SDS011;12780;45.502;9.146;2023-02-28T16:37:59;27.88;;;15.43;;